Time;durP1;ratioP1;P1;durP2;ratioP2;P2;SDS_P1;SDS_P2;PMS_P1;PMS_P2;Temp;Humidity;BMP_temperature;BMP_pressure;BME280_temperature;BME280_humidity;BME280_pressure;Samples;Min_cycle;Max_cycle;Signal;HPM_P1;HPM_P2
2021/09/08 00:01:45;;;;;;;9.60;6.90;;;;;;;12.63;51.71;101446.94;1689815;83;20170;-46
2021/09/08 00:04:11;;;;;;;9.18;8.00;;;;;;;12.59;52.10;101448.81;1698790;83;21088;-46
2021/09/08 00:06:37;;;;;;;;;;;;;;;12.61;51.89;101462.33;1687603;83;21064;-46
2021/09/08 00:09:03;;;;;;;9.73;6.70;;;;;;;12.61;51.85;101454.31;1681158;83;20191;-48
2021/09/08 00:11:30;;;;;;;15.70;7.37;;;;;;;12.57;51.76;101454.84;1692480;83;22073;-47
2021/09/08 00:13:56;;;;;;;10.25;7.53;;;;;;;12.59;51.92;101452.31;1690771;83;21115;-48
2021/09/08 00:16:25;;;;;;;13.05;6.58;;;;;;;12.56;51.96;101453.99;1687799;83;21067;-47
2021/09/08 00:18:53;;;;;;;11.48;7.47;;;;;;;12.53;51.90;101454.36;1677943;83;21187;-47
2021/09/08 00:21:18;;;;;;;12.25;7.17;;;;;;;12.53;52.14;101452.20;1688660;83;21641;-46
2021/09/08 00:23:47;;;;;;;11.78;6.87;;;;;;;12.55;51.98;101453.67;1694407;83;21078;-47
2021/09/08 00:26:13;;;;;;;;;;;;;;;12.56;51.91;101447.30;1642839;85;21132;-47
2021/09/08 00:28:39;;;;;;;13.20;7.12;;;;;;;12.59;51.91;101450.98;1623267;86;20144;-47
2021/09/08 00:31:06;;;;;;;10.18;6.55;;;;;;;12.56;51.94;101452.66;1698907;83;21113;-48
2021/09/08 00:33:32;;;;;;;10.23;6.30;;;;;;;12.58;51.63;101453.82;1690670;82;21065;-48
2021/09/08 00:36:01;;;;;;;9.38;6.17;;;;;;;12.62;51.20;101450.64;1694792;83;21043;-47
2021/09/08 00:38:29;;;;;;;7.62;5.97;;;;;;;12.67;50.90;101443.41;1687990;83;21063;-47
2021/09/08 00:40:57;;;;;;;7.35;5.90;;;;;;;12.73;50.77;101448.56;1695638;83;21262;-47
2021/09/08 00:43:26;;;;;;;14.58;6.12;;;;;;;12.75;50.52;101452.76;1696844;83;21059;-47
2021/09/08 00:45:56;;;;;;;8.68;6.40;;;;;;;12.77;50.11;101452.55;1688515;82;21019;-47
2021/09/08 00:48:24;;;;;;;9.35;7.35;;;;;;;12.76;50.43;101449.56;1674150;83;21174;-47
2021/09/08 00:50:51;;;;;;;7.75;6.67;;;;;;;12.75;50.59;101448.74;1688106;83;21201;-47
2021/09/08 00:53:21;;;;;;;10.93;6.50;;;;;;;12.73;50.72;101448.05;1682850;83;21091;-48
2021/09/08 00:55:50;;;;;;;9.28;6.72;;;;;;;12.70;50.87;101447.09;1680684;83;21333;-48
2021/09/08 00:58:17;;;;;;;8.80;6.33;;;;;;;12.67;51.09;101456.79;1697256;83;21020;-48
2021/09/08 01:00:44;;;;;;;9.45;7.15;;;;;;;12.66;51.09;101453.80;1697156;82;21565;-48
2021/09/08 01:05:29;;;;;;;12.82;6.65;;;;;;;12.64;51.13;101453.97;1859291;75;22972;-46
2021/09/08 01:07:59;;;;;;;13.93;7.03;;;;;;;12.55;51.21;101461.70;1818728;77;21002;-47
2021/09/08 01:10:28;;;;;;;8.53;5.58;;;;;;;12.54;51.16;101456.52;1823659;77;21119;-48
2021/09/08 01:12:55;;;;;;;15.43;6.42;;;;;;;12.55;51.83;101460.87;1785319;77;21040;-47
2021/09/08 01:15:22;;;;;;;14.25;5.95;;;;;;;12.53;51.38;101458.37;1775130;80;21012;-48
2021/09/08 01:17:48;;;;;;;;;;;;;;;12.51;51.60;101456.86;1760380;80;21032;-47
2021/09/08 01:20:16;;;;;;;9.83;6.45;;;;;;;12.45;51.56;101451.22;1763259;80;20502;-47
2021/09/08 01:22:51;;;;;;;;;;;;;;;12.34;51.89;101452.08;1764697;80;21590;-47
2021/09/08 01:25:21;;;;;;;13.13;6.75;;;;;;;12.34;52.43;101452.08;1757369;80;20453;-48
2021/09/08 01:27:50;;;;;;;12.40;7.17;;;;;;;12.26;52.00;101455.61;1767391;80;20990;-47
2021/09/08 01:30:23;;;;;;;10.35;6.83;;;;;;;12.25;52.10;101453.45;1751710;80;20970;-47
2021/09/08 01:32:52;;;;;;;13.15;6.62;;;;;;;12.24;51.95;101442.45;1763168;80;21522;-47
2021/09/08 01:35:20;;;;;;;7.05;6.25;;;;;;;12.24;51.81;101446.45;1754593;80;21487;-46
2021/09/08 01:37:48;;;;;;;11.48;7.20;;;;;;;12.22;51.75;101442.27;1761681;80;21017;-47
2021/09/08 01:40:17;;;;;;;8.28;5.20;;;;;;;12.20;51.72;101442.43;1757683;80;21107;-47
2021/09/08 01:42:43;;;;;;;9.13;6.10;;;;;;;12.19;51.50;101442.12;1767664;80;21024;-47
2021/09/08 01:45:14;;;;;;;7.30;5.67;;;;;;;12.21;51.49;101444.11;1724549;81;21474;-47
2021/09/08 01:47:42;;;;;;;11.80;6.75;;;;;;;12.24;51.25;101436.23;1726825;82;20993;-47
2021/09/08 01:50:11;;;;;;;9.88;5.67;;;;;;;12.26;51.13;101438.23;1721971;82;21064;-48
2021/09/08 01:52:39;;;;;;;16.93;5.67;;;;;;;12.27;51.12;101439.41;1715723;82;21024;-47
2021/09/08 01:55:07;;;;;;;9.48;5.55;;;;;;;12.29;51.12;101437.08;1713404;82;21072;-46
2021/09/08 01:57:35;;;;;;;11.88;5.67;;;;;;;12.27;50.92;101443.41;1741295;81;20975;-48
2021/09/08 02:00:04;;;;;;;6.70;5.97;;;;;;;12.27;50.89;101439.92;1740021;81;21139;-47
2021/09/08 02:02:32;;;;;;;7.30;5.83;;;;;;;12.25;50.95;101441.94;1725908;81;21062;-47
2021/09/08 02:04:58;;;;;;;10.23;5.20;;;;;;;12.24;50.92;101440.25;1734239;81;21059;-47
2021/09/08 02:07:26;;;;;;;7.47;6.03;;;;;;;12.22;50.95;101449.80;1735711;81;21078;-47
2021/09/08 02:09:53;;;;;;;7.50;5.60;;;;;;;12.21;51.03;101449.46;1736089;81;21088;-48
2021/09/08 02:12:20;;;;;;;10.45;6.28;;;;;;;12.18;50.84;101451.13;1744906;79;21052;-47
2021/09/08 02:14:46;;;;;;;;;;;;;;;12.16;51.05;101442.45;1748324;80;21057;-48
2021/09/08 02:17:12;;;;;;;12.53;6.25;;;;;;;12.16;51.02;101441.11;1748408;80;20161;-48
2021/09/08 02:19:39;;;;;;;7.87;6.15;;;;;;;12.11;51.12;101446.16;1740448;80;21060;-47
2021/09/08 02:22:04;;;;;;;11.43;6.00;;;;;;;12.10;51.21;101441.81;1729980;80;21018;-46
2021/09/08 02:24:31;;;;;;;10.53;7.78;;;;;;;12.07;51.28;101441.66;1707202;83;20954;-47
2021/09/08 02:26:57;;;;;;;8.40;5.65;;;;;;;12.04;51.40;101439.31;1702998;83;20989;-47
2021/09/08 02:29:24;;;;;;;8.78;5.65;;;;;;;12.03;51.46;101448.84;1705308;83;21017;-46
2021/09/08 02:31:50;;;;;;;;;;;;;;;12.00;51.54;101442.52;1707363;83;21613;-48
2021/09/08 02:34:16;;;;;;;6.25;5.55;;;;;;;11.98;51.63;101444.02;1702030;81;20182;-47
2021/09/08 02:36:42;;;;;;;;;;;;;;;11.93;52.04;101444.20;1724855;81;21044;-46
2021/09/08 02:39:09;;;;;;;6.85;5.70;;;;;;;11.92;51.72;101444.67;1710531;81;20188;-47
2021/09/08 02:41:35;;;;;;;7.20;4.95;;;;;;;11.89;51.78;101447.67;1728756;81;21036;-46
2021/09/08 02:44:02;;;;;;;9.25;6.05;;;;;;;11.91;51.61;101448.37;1728581;81;21168;-47
2021/09/08 02:46:29;;;;;;;7.12;6.00;;;;;;;11.87;51.70;101439.82;1707912;81;21080;-47
2021/09/08 02:48:56;;;;;;;6.12;5.53;;;;;;;11.93;51.65;101446.36;1729560;83;21051;-47
2021/09/08 02:51:22;;;;;;;6.60;5.62;;;;;;;11.94;51.70;101457.39;1723199;83;21071;-46
2021/09/08 02:53:49;;;;;;;8.43;5.28;;;;;;;11.96;51.68;101444.69;1723153;81;21061;-47
2021/09/08 02:56:15;;;;;;;6.92;5.97;;;;;;;11.97;51.67;101449.02;1736535;80;21506;-45
2021/09/08 02:58:42;;;;;;;7.65;5.70;;;;;;;11.97;51.88;101449.02;1732999;81;21489;-45
2021/09/08 03:01:11;;;;;;;10.35;5.47;;;;;;;11.98;51.53;101440.48;1778040;80;21023;-48
2021/09/08 03:03:38;;;;;;;6.28;5.12;;;;;;;12.00;51.06;101444.67;1755609;80;20996;-46
2021/09/08 03:06:05;;;;;;;8.85;5.85;;;;;;;12.02;50.66;101443.17;1733740;81;21140;-45
2021/09/08 03:08:32;;;;;;;6.40;4.90;;;;;;;12.06;50.43;101442.65;1784432;79;21056;-45
2021/09/08 03:10:59;;;;;;;8.70;4.78;;;;;;;12.10;50.23;101447.16;1784012;79;21478;-45
2021/09/08 03:13:26;;;;;;;9.03;4.53;;;;;;;12.14;49.94;101440.45;1765083;79;21020;-45
2021/09/08 03:15:54;;;;;;;6.87;5.03;;;;;;;12.17;49.72;101441.45;1762874;80;21126;-46
2021/09/08 03:18:21;;;;;;;7.45;4.83;;;;;;;12.19;49.60;101438.11;1759871;80;21057;-46
2021/09/08 03:20:47;;;;;;;6.62;4.80;;;;;;;12.23;49.70;101434.08;1766477;80;21159;-45
2021/09/08 03:23:14;;;;;;;7.10;4.92;;;;;;;12.26;49.53;101431.07;1715835;80;21484;-45
2021/09/08 03:25:40;;;;;;;5.80;5.25;;;;;;;12.28;49.60;101444.23;1672126;84;21092;-45
2021/09/08 03:28:06;;;;;;;;;;;;;;;12.26;49.75;101439.09;1659641;85;21068;-46
2021/09/08 03:30:34;;;;;;;7.80;5.42;;;;;;;12.20;49.97;101426.39;1672061;84;20145;-46
2021/09/08 03:33:02;;;;;;;7.78;5.65;;;;;;;12.21;50.26;101433.93;1672982;84;21544;-46
2021/09/08 03:35:29;;;;;;;9.13;5.20;;;;;;;12.21;49.97;101432.59;1674820;85;21120;-45
2021/09/08 03:37:56;;;;;;;14.10;6.35;;;;;;;12.20;50.42;101433.08;1671681;84;21022;-46
2021/09/08 03:40:23;;;;;;;8.08;5.35;;;;;;;12.18;50.37;101432.92;1669365;84;21136;-46
2021/09/08 03:42:49;;;;;;;8.73;5.90;;;;;;;12.17;50.68;101443.30;1679739;84;21034;-46
2021/09/08 03:45:16;;;;;;;9.18;6.83;;;;;;;12.15;50.86;101442.13;1707049;82;21013;-46
2021/09/08 03:47:43;;;;;;;6.75;5.40;;;;;;;12.17;50.26;101443.30;1733230;82;21072;-46
2021/09/08 03:50:11;;;;;;;8.45;5.67;;;;;;;12.17;50.30;101437.96;1746730;80;21095;-46
2021/09/08 03:52:38;;;;;;;7.00;5.83;;;;;;;12.21;50.38;101437.94;1738584;80;21001;-47
2021/09/08 03:55:07;;;;;;;7.80;5.45;;;;;;;12.24;50.29;101441.11;1746048;80;20981;-47
2021/09/08 03:57:33;;;;;;;10.60;5.75;;;;;;;12.27;50.39;101441.25;1742495;81;21000;-47
2021/09/08 03:59:59;;;;;;;11.65;6.25;;;;;;;12.31;50.19;101444.42;1721243;81;21424;-47
2021/09/08 04:02:25;;;;;;;13.48;6.20;;;;;;;12.34;50.50;101442.72;1699086;82;21052;-47
2021/09/08 04:04:52;;;;;;;11.95;6.22;;;;;;;12.36;50.64;101443.41;1697357;82;21180;-47
2021/09/08 04:07:20;;;;;;;12.70;6.47;;;;;;;12.34;50.57;101441.38;1702428;82;21071;-48
2021/09/08 04:09:47;;;;;;;13.48;6.92;;;;;;;12.35;50.70;101447.08;1739888;82;21016;-48
2021/09/08 04:12:13;;;;;;;13.40;6.78;;;;;;;12.45;50.61;101443.67;1730431;81;21086;-48
2021/09/08 04:14:40;;;;;;;12.05;6.25;;;;;;;12.53;50.50;101436.97;1719453;82;21039;-47
2021/09/08 04:17:08;;;;;;;13.48;5.65;;;;;;;12.57;50.47;101444.97;1727295;81;21065;-47
2021/09/08 04:19:34;;;;;;;8.20;6.97;;;;;;;12.72;50.53;101428.19;1713196;82;21004;-48
2021/09/08 04:22:00;;;;;;;13.30;6.72;;;;;;;12.94;50.21;101434.56;1733313;81;21011;-48
2021/09/08 04:24:28;;;;;;;8.05;5.60;;;;;;;13.11;49.64;101432.61;1722969;82;21018;-47
2021/09/08 04:26:54;;;;;;;12.07;6.40;;;;;;;13.48;49.16;101431.03;1706826;82;22249;-48
2021/09/08 04:29:21;;;;;;;11.85;6.97;;;;;;;13.78;48.64;101421.20;1725228;81;21176;-50
2021/09/08 04:31:47;;;;;;;;;;;;;;;14.12;47.82;101432.72;1732035;81;21050;-47
2021/09/08 04:34:13;;;;;;;10.55;6.28;;;;;;;14.59;47.00;101438.21;1730985;81;20152;-48
2021/09/08 04:36:40;;;;;;;12.73;6.58;;;;;;;15.16;45.95;101427.67;1717505;82;21532;-51
2021/09/08 04:39:07;;;;;;;14.13;6.90;;;;;;;15.51;44.74;101425.10;1713400;82;21669;-47
2021/09/08 04:41:33;;;;;;;10.35;5.72;;;;;;;15.46;44.21;101421.63;1711164;82;21003;-47
2021/09/08 04:44:01;;;;;;;9.48;6.33;;;;;;;15.28;44.87;101423.46;1717846;82;21152;-47
2021/09/08 04:46:28;;;;;;;9.98;6.65;;;;;;;15.12;44.70;101425.88;1707013;82;21105;-47
2021/09/08 04:48:56;;;;;;;11.68;6.37;;;;;;;14.88;44.92;101428.45;1713613;82;21231;-48
2021/09/08 04:51:23;;;;;;;10.13;5.97;;;;;;;14.65;45.74;101427.23;1723475;81;21119;-47
2021/09/08 04:53:49;;;;;;;9.15;5.80;;;;;;;14.62;45.91;101435.69;1709905;82;21564;-47
2021/09/08 04:56:16;;;;;;;12.25;6.72;;;;;;;14.69;46.13;101424.52;1735263;81;21050;-47
2021/09/08 04:58:44;;;;;;;9.88;6.15;;;;;;;14.92;45.67;101431.58;1731395;81;21059;-49
2021/09/08 05:01:10;;;;;;;11.20;6.65;;;;;;;15.11;45.48;101429.61;1730537;81;21053;-47
2021/09/08 05:03:36;;;;;;;13.25;6.60;;;;;;;15.19;44.96;101420.06;1718998;82;21201;-51
2021/09/08 05:06:02;;;;;;;6.45;5.83;;;;;;;15.32;45.04;101430.63;1724170;82;21053;-48
2021/09/08 05:08:29;;;;;;;11.35;6.67;;;;;;;15.44;44.97;101430.41;1723154;82;21056;-48
2021/09/08 05:10:56;;;;;;;8.78;5.75;;;;;;;15.69;44.59;101424.11;1718808;82;21054;-49
2021/09/08 05:13:22;;;;;;;14.20;5.97;;;;;;;16.24;43.26;101424.79;1733149;81;21062;-47
2021/09/08 05:15:49;;;;;;;7.08;5.85;;;;;;;16.95;42.70;101408.27;1714545;82;21098;-48
2021/09/08 05:18:16;;;;;;;14.78;6.67;;;;;;;17.68;41.16;101404.25;1731382;81;21078;-48
2021/09/08 05:20:45;;;;;;;11.12;6.60;;;;;;;18.38;39.82;101406.37;1726909;82;20996;-49
2021/09/08 05:23:12;;;;;;;13.32;5.50;;;;;;;18.57;39.73;101406.50;1711570;82;21544;-49
2021/09/08 05:25:38;;;;;;;11.83;7.12;;;;;;;18.49;38.86;101404.88;1736922;81;20995;-50
2021/09/08 05:28:04;;;;;;;11.15;6.80;;;;;;;18.19;39.39;101405.94;1717547;82;21072;-49
2021/09/08 05:30:31;;;;;;;14.23;6.28;;;;;;;17.90;40.16;101406.22;1712174;82;21063;-47
2021/09/08 05:32:57;;;;;;;11.63;6.15;;;;;;;18.06;40.03;101402.26;1736669;81;21020;-49
2021/09/08 05:35:23;;;;;;;;;;;;;;;18.52;39.52;101398.24;1734962;81;21035;-52
2021/09/08 05:37:50;;;;;;;13.45;6.65;;;;;;;19.00;39.23;101395.06;1733615;81;20680;-49
2021/09/08 05:40:16;;;;;;;13.72;5.67;;;;;;;19.52;38.40;101390.28;1720734;82;21130;-48
2021/09/08 05:42:43;;;;;;;9.08;5.97;;;;;;;20.12;37.36;101387.52;1719789;82;21059;-50
2021/09/08 05:45:10;;;;;;;16.32;5.95;;;;;;;20.64;36.04;101390.61;1703863;83;21081;-53
2021/09/08 05:47:36;;;;;;;10.63;5.85;;;;;;;20.97;35.58;101389.31;1738391;80;21008;-53
2021/09/08 05:50:04;;;;;;;10.82;5.85;;;;;;;21.23;34.98;101388.58;1738164;80;21629;-53
2021/09/08 05:52:30;;;;;;;9.53;5.60;;;;;;;21.33;34.74;101388.84;1735067;80;21646;-53
2021/09/08 05:54:57;;;;;;;7.37;5.85;;;;;;;21.38;34.78;101394.41;1738932;80;21036;-53
2021/09/08 05:57:22;;;;;;;;;;;;;;;21.55;35.08;101395.38;1724765;82;21039;-52
2021/09/08 05:59:48;;;;;;;13.28;6.37;;;;;;;21.72;34.62;101391.95;1723628;82;20151;-53
2021/09/08 06:02:15;;;;;;;11.57;4.58;;;;;;;21.40;34.58;101394.98;1723535;82;21577;-52
2021/09/08 06:04:41;;;;;;;;;;;;;;;20.97;35.21;101394.73;1722160;82;21004;-53
2021/09/08 06:07:07;;;;;;;18.02;6.17;;;;;;;20.55;36.42;101398.22;1719748;82;20504;-52
2021/09/08 06:09:33;;;;;;;13.38;5.58;;;;;;;20.54;36.85;101401.15;1721923;82;21044;-54
2021/09/08 06:12:02;;;;;;;9.93;5.17;;;;;;;20.85;36.57;101387.09;1701158;82;21321;-51
2021/09/08 06:14:30;;;;;;;9.68;5.00;;;;;;;20.90;35.54;101385.87;1733384;81;21872;-55
2021/09/08 06:16:57;;;;;;;9.05;5.33;;;;;;;20.77;35.83;101392.31;1731675;81;21034;-53
2021/09/08 06:19:23;;;;;;;11.95;4.72;;;;;;;20.68;36.11;101385.56;1715952;82;21025;-55
2021/09/08 06:21:50;;;;;;;12.98;5.05;;;;;;;20.74;36.16;101386.02;1719173;82;20980;-50
2021/09/08 06:24:16;;;;;;;11.73;5.35;;;;;;;20.86;35.97;101377.38;1711981;82;21072;-52
2021/09/08 06:26:44;;;;;;;15.55;5.67;;;;;;;21.10;36.44;101380.98;1718483;82;21270;-51
2021/09/08 06:29:11;;;;;;;6.72;4.70;;;;;;;21.40;36.14;101381.42;1709179;82;21561;-49
2021/09/08 06:31:37;;;;;;;10.88;4.65;;;;;;;21.63;35.27;101378.45;1716434;82;21145;-48
2021/09/08 06:34:03;;;;;;;5.37;4.15;;;;;;;21.85;35.06;101371.35;1722580;82;21203;-49
2021/09/08 06:36:29;;;;;;;8.48;3.90;;;;;;;22.02;34.76;101378.73;1719590;82;21143;-50
2021/09/08 06:38:55;;;;;;;;;;;;;;;21.88;35.30;101378.19;1730976;81;21086;-49
2021/09/08 06:41:21;;;;;;;9.98;4.10;;;;;;;21.82;35.69;101373.17;1718895;81;20134;-50
2021/09/08 06:43:49;;;;;;;13.38;3.92;;;;;;;21.95;35.19;101371.56;1730858;81;21058;-50
2021/09/08 06:46:19;;;;;;;9.18;3.75;;;;;;;22.20;35.00;101369.61;1725354;81;21071;-50
2021/09/08 06:48:46;;;;;;;11.35;5.17;;;;;;;22.09;34.28;101365.31;1716550;82;21565;-49
2021/09/08 06:51:13;;;;;;;5.70;3.85;;;;;;;21.57;35.42;101370.19;1724187;82;21107;-49
2021/09/08 06:53:39;;;;;;;7.40;3.72;;;;;;;21.00;36.63;101366.64;1701135;83;21104;-49
2021/09/08 06:56:06;;;;;;;;;;;;;;;20.59;37.91;101368.27;1735879;82;21020;-50
2021/09/08 06:58:33;;;;;;;8.63;3.27;;;;;;;20.30;38.12;101376.66;1719901;82;20237;-49
2021/09/08 07:00:59;;;;;;;11.53;4.37;;;;;;;19.98;39.12;101373.30;1711691;82;21144;-49
2021/09/08 07:03:25;;;;;;;7.22;3.90;;;;;;;19.87;39.36;101376.22;1738564;81;21024;-49
2021/09/08 07:05:52;;;;;;;;;;;;;;;19.79;39.42;101376.52;1747782;82;21029;-48
2021/09/08 07:08:19;;;;;;;7.90;3.80;;;;;;;19.70;39.55;101385.95;1733659;82;20223;-50
2021/09/08 07:10:45;;;;;;;6.05;3.87;;;;;;;19.49;40.58;101379.91;1736670;81;21055;-49
2021/09/08 07:13:11;;;;;;;10.30;3.67;;;;;;;19.40;40.80;101380.73;1726195;81;21187;-50
2021/09/08 07:15:38;;;;;;;9.75;3.52;;;;;;;19.43;40.81;101382.15;1712196;83;21218;-49
2021/09/08 07:18:04;;;;;;;7.75;4.10;;;;;;;19.50;41.20;101384.80;1707428;83;21078;-49
2021/09/08 07:20:30;;;;;;;6.97;3.35;;;;;;;19.53;40.80;101385.70;1703442;83;21081;-49
2021/09/08 07:22:56;;;;;;;5.55;3.80;;;;;;;19.54;40.86;101384.12;1725411;81;20964;-49
2021/09/08 07:25:23;;;;;;;4.70;3.33;;;;;;;19.58;41.25;101382.63;1739887;81;21046;-50
2021/09/08 07:27:50;;;;;;;14.43;3.47;;;;;;;19.61;41.47;101385.43;1723277;83;21049;-49
2021/09/08 07:30:16;;;;;;;13.18;4.05;;;;;;;19.69;41.33;101382.96;1744079;82;21007;-49
2021/09/08 07:32:42;;;;;;;;;;;;;;;19.71;41.54;101383.03;1719241;83;21721;-49
2021/09/08 07:35:11;;;;;;;4.83;3.80;;;;;;;19.73;41.13;101385.02;1691918;82;20168;-49
2021/09/08 07:37:37;;;;;;;5.28;3.37;;;;;;;19.73;40.90;101389.60;1682720;84;21078;-49
2021/09/08 07:40:08;;;;;;;5.35;3.50;;;;;;;19.75;41.17;101384.80;1688550;84;21538;-49
2021/09/08 07:42:37;;;;;;;34.60;6.22;;;;;;;19.77;41.01;101390.27;1651780;86;21043;-49
2021/09/08 07:45:06;;;;;;;11.38;3.95;;;;;;;19.83;41.60;101387.19;1684362;84;21027;-47
2021/09/08 07:47:32;;;;;;;5.47;3.00;;;;;;;19.86;41.71;101388.11;1672365;84;21071;-49
2021/09/08 07:49:59;;;;;;;6.37;3.20;;;;;;;19.89;41.31;101390.38;1673440;84;21035;-49
2021/09/08 07:52:26;;;;;;;8.13;3.37;;;;;;;19.93;41.65;101389.37;1679643;84;21047;-48
2021/09/08 07:54:53;;;;;;;7.50;3.30;;;;;;;19.93;40.82;101383.46;1684967;84;21079;-49
2021/09/08 07:57:18;;;;;;;;;;;;;;;19.93;41.27;101386.16;1711978;82;21127;-50
2021/09/08 07:59:44;;;;;;;10.45;3.42;;;;;;;19.90;40.68;101382.55;1708261;82;20139;-49
2021/09/08 08:02:10;;;;;;;9.25;3.00;;;;;;;19.86;41.17;101376.47;1673287;84;21054;-51
2021/09/08 08:04:36;;;;;;;10.03;2.87;;;;;;;19.91;40.77;101370.69;1716151;82;21543;-49
2021/09/08 08:07:04;;;;;;;10.18;2.85;;;;;;;19.99;41.25;101369.02;1711231;82;21037;-51
2021/09/08 08:09:31;;;;;;;7.05;2.25;;;;;;;20.07;41.65;101363.83;1723576;82;21174;-51
2021/09/08 08:11:59;;;;;;;7.10;3.30;;;;;;;20.23;39.92;101361.87;1708628;81;21034;-49
2021/09/08 08:14:25;;;;;;;8.10;2.40;;;;;;;20.36;39.59;101357.31;1703400;82;21018;-49
2021/09/08 08:16:53;;;;;;;6.00;2.17;;;;;;;20.42;39.21;101355.89;1734232;81;21197;-50
2021/09/08 08:19:20;;;;;;;4.30;1.77;;;;;;;20.39;38.88;101360.93;1728257;81;21077;-49
2021/09/08 08:21:46;;;;;;;5.30;1.87;;;;;;;20.37;39.40;101357.09;1685661;83;21147;-49
2021/09/08 08:24:13;;;;;;;4.40;2.15;;;;;;;20.37;39.60;101370.63;1721615;81;21107;-49
2021/09/08 08:26:40;;;;;;;5.83;2.67;;;;;;;20.41;39.05;101373.17;1724920;81;21106;-49
2021/09/08 08:29:06;;;;;;;6.30;2.60;;;;;;;20.47;39.80;101374.68;1698172;83;21372;-49
2021/09/08 08:31:32;;;;;;;;;;;;;;;20.45;39.73;101356.48;1716082;82;21063;-50
2021/09/08 08:33:58;;;;;;;8.30;3.98;;;;;;;20.57;39.89;101368.20;1729868;81;20138;-48
2021/09/08 08:36:24;;;;;;;6.62;2.70;;;;;;;20.63;39.78;101364.59;1731751;81;21998;-50
2021/09/08 08:38:50;;;;;;;;;;;;;;;20.72;39.59;101364.57;1739873;81;21008;-49
2021/09/08 08:41:16;;;;;;;9.13;2.70;;;;;;;20.78;39.70;101366.89;1732820;81;20203;-50
2021/09/08 08:43:42;;;;;;;;;;;;;;;20.77;39.22;101365.22;1738935;81;21009;-50
2021/09/08 08:46:08;;;;;;;4.58;2.62;;;;;;;20.79;39.40;101364.45;1732965;80;20208;-50
2021/09/08 08:48:35;;;;;;;6.92;2.40;;;;;;;20.79;39.47;101368.02;1736021;81;21093;-49
2021/09/08 08:51:01;;;;;;;2.67;2.25;;;;;;;20.89;39.30;101361.17;1731830;81;21323;-50
2021/09/08 08:53:27;;;;;;;;;;;;;;;20.95;38.93;101363.80;1736800;81;21559;-50
2021/09/08 08:55:53;;;;;;;5.97;2.80;;;;;;;20.99;38.65;101357.39;1740784;81;20178;-53
2021/09/08 08:58:20;;;;;;;9.03;2.45;;;;;;;20.93;39.43;101356.44;1677703;83;21441;-54
2021/09/08 09:00:46;;;;;;;;;;;;;;;20.98;39.16;101355.22;1741403;80;20996;-50
2021/09/08 09:03:25;;;;;;;4.03;1.98;;;;;;;21.05;39.07;101352.37;1747045;80;20130;-49
2021/09/08 09:06:03;;;;;;;3.40;2.20;;;;;;;21.06;38.67;101350.48;1745835;80;21064;-50
2021/09/08 09:08:33;;;;;;;4.15;2.72;;;;;;;21.09;38.18;101356.27;1742884;80;21091;-50
2021/09/08 09:11:01;;;;;;;13.78;2.45;;;;;;;21.10;37.77;101344.38;1741225;80;21019;-50
2021/09/08 09:13:35;;;;;;;10.23;3.22;;;;;;;21.14;38.48;101346.91;1753634;80;21083;-49
2021/09/08 09:16:07;;;;;;;4.58;2.17;;;;;;;21.26;37.97;101333.36;1740387;80;21084;-50
2021/09/08 09:18:43;;;;;;;6.47;2.55;;;;;;;21.39;37.59;101328.23;1744356;80;20980;-50
2021/09/08 09:21:13;;;;;;;6.70;2.12;;;;;;;21.50;37.10;101336.11;1749132;80;20988;-49
2021/09/08 09:23:50;;;;;;;7.00;2.27;;;;;;;21.59;36.80;101334.70;1734966;81;21395;-49
2021/09/08 09:26:25;;;;;;;2.40;1.60;;;;;;;21.65;36.58;101316.64;1723734;82;21009;-50
2021/09/08 09:28:56;;;;;;;5.00;1.52;;;;;;;21.70;36.47;101317.58;1734852;81;21110;-49
2021/09/08 09:31:24;;;;;;;6.05;2.27;;;;;;;21.74;35.83;101318.74;1733175;81;21545;-48
2021/09/08 09:33:56;;;;;;;3.37;1.95;;;;;;;21.79;36.40;101315.30;1712235;82;21058;-50
2021/09/08 09:36:30;;;;;;;7.62;2.12;;;;;;;21.85;35.68;101323.86;1726293;82;21051;-52
2021/09/08 09:38:58;;;;;;;4.75;2.55;;;;;;;21.90;36.18;101322.58;1725225;81;21138;-50
2021/09/08 09:41:30;;;;;;;2.95;1.80;;;;;;;21.91;36.21;101305.25;1735665;81;20995;-53
2021/09/08 09:44:08;;;;;;;4.92;1.77;;;;;;;21.60;35.54;101261.72;1716463;81;21000;-50
2021/09/08 09:46:35;;;;;;;;;;;;;;;21.87;35.73;101299.17;1725278;82;21102;-50
2021/09/08 09:49:03;;;;;;;6.37;1.57;;;;;;;21.87;36.26;101300.53;1727232;82;20171;-48
2021/09/08 09:51:31;;;;;;;5.20;1.82;;;;;;;21.86;35.85;101290.75;1730366;81;20983;-50
2021/09/08 09:53:58;;;;;;;5.55;1.62;;;;;;;21.87;35.54;101290.52;1736240;81;20999;-48
2021/09/08 09:56:25;;;;;;;5.15;2.05;;;;;;;21.90;35.42;101290.02;1723410;80;21054;-49
2021/09/08 09:58:52;;;;;;;8.70;1.70;;;;;;;21.95;35.62;101286.59;1729932;81;21078;-49
2021/09/08 10:01:19;;;;;;;3.92;2.00;;;;;;;21.99;35.64;101291.02;1715970;81;21014;-49
2021/09/08 10:03:47;;;;;;;10.70;2.47;;;;;;;22.06;35.75;101290.34;1700927;83;21525;-50
2021/09/08 10:06:15;;;;;;;3.35;1.90;;;;;;;22.13;35.75;101278.27;1732159;82;21149;-50
2021/09/08 10:08:49;;;;;;;3.22;1.60;;;;;;;22.20;35.72;101281.37;1716275;83;20998;-50
2021/09/08 10:11:23;;;;;;;4.22;1.10;;;;;;;22.27;35.30;101275.29;1706624;82;21070;-50
2021/09/08 10:13:57;;;;;;;4.40;1.62;;;;;;;22.29;34.97;101273.15;1748508;81;21050;-49
2021/09/08 10:16:27;;;;;;;2.72;1.67;;;;;;;22.29;35.03;101272.61;1717333;83;21069;-51
2021/09/08 10:18:55;;;;;;;1.42;1.20;;;;;;;22.27;34.72;101267.95;1738468;82;21038;-51
2021/09/08 10:21:22;;;;;;;2.15;1.40;;;;;;;22.27;35.09;101270.67;1753452;81;21026;-51
2021/09/08 10:24:04;;;;;;;3.47;1.72;;;;;;;22.28;35.28;101262.83;1735180;82;21094;-51
2021/09/08 10:26:33;;;;;;;2.10;1.35;;;;;;;22.37;35.34;101259.70;1733200;82;21545;-50
2021/09/08 10:29:07;;;;;;;5.65;1.85;;;;;;;22.43;35.57;101254.64;1735095;82;21018;-50
2021/09/08 10:31:41;;;;;;;4.78;1.87;;;;;;;22.43;34.93;101250.03;1752609;82;21149;-50
2021/09/08 10:34:11;;;;;;;5.08;1.80;;;;;;;22.43;35.38;101253.28;1727043;81;21073;-51
2021/09/08 10:36:39;;;;;;;3.08;1.90;;;;;;;22.49;35.52;101248.22;1700191;83;21452;-50
2021/09/08 10:39:17;;;;;;;1.62;1.37;;;;;;;22.55;35.53;101252.69;1712548;83;21634;-51
2021/09/08 10:41:50;;;;;;;5.97;2.22;;;;;;;22.63;35.33;101249.56;1742411;82;20972;-51
2021/09/08 10:44:20;;;;;;;4.08;2.05;;;;;;;22.62;34.84;101250.64;1734919;82;21046;-50
2021/09/08 10:46:56;;;;;;;4.17;2.22;;;;;;;22.54;34.95;101253.20;1726637;82;21133;-48
2021/09/08 10:49:45;;;;;;;5.28;1.87;;;;;;;22.49;35.10;101247.71;1733839;82;21127;-51
2021/09/08 10:52:36;;;;;;;7.37;3.35;;;;;;;22.36;34.97;101231.73;1743895;81;21078;-50
2021/09/08 10:55:14;;;;;;;4.50;3.30;;;;;;;22.29;35.34;101244.09;1727198;82;21012;-49
2021/09/08 10:57:47;;;;;;;3.58;2.30;;;;;;;22.31;35.47;101249.28;1730764;82;21069;-49
2021/09/08 11:00:35;;;;;;;3.52;2.15;;;;;;;22.36;35.41;101249.38;1738231;82;21018;-50
2021/09/08 11:03:05;;;;;;;5.37;2.37;;;;;;;22.40;35.27;101245.11;1732705;82;21090;-50
2021/09/08 11:05:48;;;;;;;4.00;2.27;;;;;;;22.47;35.36;101252.56;1746196;82;21046;-50
2021/09/08 11:08:33;;;;;;;5.25;2.20;;;;;;;22.55;35.27;101248.62;1750232;82;21055;-50
2021/09/08 11:11:17;;;;;;;4.25;2.15;;;;;;;22.59;35.16;101249.77;1744157;82;21110;-50
2021/09/08 11:13:54;;;;;;;5.30;2.72;;;;;;;22.61;35.23;101246.81;1728998;82;21074;-50
2021/09/08 11:16:20;;;;;;;7.33;2.65;;;;;;;22.65;35.63;101243.88;1739258;82;21036;-49
2021/09/08 11:18:46;;;;;;;10.05;2.25;;;;;;;22.68;35.46;101242.86;1741641;82;21628;-50
2021/09/08 11:21:15;;;;;;;3.15;2.42;;;;;;;22.69;35.51;101234.98;1728916;82;21494;-50
2021/09/08 11:23:47;;;;;;;4.17;2.60;;;;;;;22.69;35.43;101234.98;1740610;81;21042;-50
2021/09/08 11:26:12;;;;;;;6.15;2.62;;;;;;;22.70;35.44;101233.11;1729083;82;21234;-49
2021/09/08 11:28:41;;;;;;;3.35;2.47;;;;;;;22.72;35.32;101233.13;1730259;81;21098;-49
2021/09/08 11:31:20;;;;;;;7.20;2.30;;;;;;;22.75;35.30;101233.16;1740736;82;21007;-50
2021/09/08 11:33:46;;;;;;;8.68;2.22;;;;;;;22.77;35.14;101235.64;1729458;82;20972;-50
2021/09/08 11:36:17;;;;;;;6.87;2.22;;;;;;;22.77;35.00;101217.97;1727091;82;21018;-50